Aeroporto :
LOGIN :

Iscrizione | Disclaimer

   EN    FR    IT 

 










Sommario :    VFR   VFR Marginale   IFR   IFR Intensivo   IFR Molto Intensivo
Visibilità : 
Base nubi : 
>= 8 km
>= 3000ft
5 / 8 km
1000 / 3000 ft
1500m / 5 km
500 / 1000 ft
800 / 1500m
200 / 500 ft
< 800m
< 200 ft
Simboli :   Temporali  Nebbia  Neve Forte  Precipitazioni Forti  Vento > 20 kt
SIGMETs :   Varie  Temporali  Ghiacco  Turbolenza  Onda orograficha  Ceneri Vulcaniche






- Altitudine del aeroporto : 17 ft
- Codice IATA : MPL


LFMT - Montpellier Méditerranée

ULTIMO METAR :
  • 121030Z AUTO 31011KT CAVOK 14/04 Q1009 NOSIG

METARs OBSOLETI :
  • 121000Z AUTO 31011KT CAVOK 13/03 Q1010 NOSIG
  • 120930Z AUTO 30010KT CAVOK 12/03 Q1010 NOSIG
  • 120900Z AUTO 30008KT CAVOK 12/02 Q1010 NOSIG
  • 120830Z AUTO 30009KT CAVOK 11/02 Q1010 NOSIG
  • 120800Z AUTO 29011KT CAVOK 10/02 Q1010 NOSIG

TAF TAF LFMT
Valido dal 12 a 09 ore il 13 a 09 ore UTC


120800Z 1209/1309 30012KT CAVOK
TEMPO 1213/1219 32015G26KT
BECMG 1223/1302 27005KT
ATIS : +33 4 67 13 11 70



MetMap, La meteo Aeronautica in un colpo d'occhio ! - Copyright ORBIFLY Dicembre 2007 - Disclaimer

ORBIFLY MET'MAP TEAM :

Programmazione e sviluppo : Alexandra Zaïnal
Concezione e sviluppo : Baudouin d'Aumeries
Co-Programmazione e sviluppo : Marc-Olivier Méhu
Supporto tecnico e logistico : Manuel Goepfert
Aiuto per la traduzione : Arnaldo La Scala

Contatto : metmap@orbifly.com




FONTI E CREDITI :

   NOAA